Time;durP1;ratioP1;P1;durP2;ratioP2;P2;SDS_P1;SDS_P2;PMS_P1;PMS_P2;Temp;Humidity;BMP_temperature;BMP_pressure;BME280_temperature;BME280_humidity;BME280_pressure;Samples;Min_cycle;Max_cycle;Signal;HPM_P1;HPM_P2
2022/07/29 04:04:19;;;;;;;6.60;6.00;;;17.80;99.90;;;;;;5795647;22;20593;-65
2022/07/29 04:06:45;;;;;;;9.07;7.00;;;18.00;99.90;;;;;;4975418;28;20515;-67
2022/07/29 04:09:11;;;;;;;6.70;5.87;;;18.00;99.90;;;;;;4976268;28;20460;-66
2022/07/29 04:11:39;;;;;;;7.23;6.53;;;18.00;99.90;;;;;;4976252;28;20404;-65
2022/07/29 04:14:05;;;;;;;6.13;5.47;;;18.00;99.90;;;;;;4975797;28;20405;-66
2022/07/29 04:16:31;;;;;;;6.43;5.73;;;18.00;99.90;;;;;;4974572;28;20474;-66
2022/07/29 04:18:57;;;;;;;5.90;5.40;;;18.00;99.90;;;;;;4974393;28;20210;-66
2022/07/29 04:21:22;;;;;;;6.43;5.63;;;18.00;99.90;;;;;;4975698;28;20439;-66
2022/07/29 04:23:49;;;;;;;6.50;5.50;;;18.00;99.90;;;;;;4975381;28;20174;-68
2022/07/29 04:26:18;;;;;;;6.40;5.80;;;18.00;99.90;;;;;;4975906;28;20273;-66
2022/07/29 04:28:44;;;;;;;6.50;6.00;;;18.00;99.90;;;;;;4975794;28;20461;-66
2022/07/29 04:31:11;;;;;;;6.50;5.80;;;18.00;99.90;;;;;;4975345;28;20436;-66
2022/07/29 04:33:37;;;;;;;6.70;5.87;;;18.00;99.90;;;;;;4974685;28;20416;-66
2022/07/29 04:36:03;;;;;;;5.87;5.40;;;18.00;99.90;;;;;;4975114;28;20443;-66
2022/07/29 04:38:28;;;;;;;5.80;5.20;;;18.10;99.90;;;;;;4974996;28;20631;-66
2022/07/29 04:40:54;;;;;;;5.73;4.93;;;18.00;99.90;;;;;;4975549;28;20429;-66
2022/07/29 04:43:19;;;;;;;6.30;5.70;;;18.10;99.90;;;;;;4975141;28;20166;-66
2022/07/29 04:45:45;;;;;;;5.30;4.77;;;18.20;99.90;;;;;;4975336;28;20230;-66
2022/07/29 04:48:11;;;;;;;5.80;5.30;;;18.30;99.90;;;;;;4975287;28;20179;-66
2022/07/29 04:50:40;;;;;;;5.13;4.63;;;18.40;99.90;;;;;;4974993;28;20641;-66
2022/07/29 04:53:07;;;;;;;5.73;5.23;;;18.50;99.90;;;;;;4975052;28;20201;-66
2022/07/29 04:55:33;;;;;;;6.40;5.00;;;18.70;99.90;;;;;;4975442;28;20797;-66
2022/07/29 04:57:58;;;;;;;5.43;5.03;;;18.80;99.90;;;;;;4975387;28;20435;-66
2022/07/29 05:00:24;;;;;;;4.70;4.30;;;18.90;99.90;;;;;;4975357;28;20659;-66
2022/07/29 05:02:50;;;;;;;6.13;4.47;;;19.00;99.90;;;;;;4973609;28;20172;-66
2022/07/29 05:05:16;;;;;;;5.50;4.90;;;19.10;99.90;;;;;;4974750;28;20203;-66
2022/07/29 05:07:41;;;;;;;4.90;4.50;;;19.30;99.90;;;;;;4974146;28;20264;-66
2022/07/29 05:10:08;;;;;;;4.67;4.23;;;19.40;99.90;;;;;;4968764;28;20433;-66
2022/07/29 05:12:33;;;;;;;5.67;5.23;;;19.40;99.90;;;;;;4957206;29;20180;-66
2022/07/29 05:14:59;;;;;;;5.50;5.10;;;19.60;99.90;;;;;;4965925;28;20923;-68
2022/07/29 05:17:25;;;;;;;5.70;4.87;;;19.50;99.90;;;;;;4974505;28;20208;-65
2022/07/29 05:19:51;;;;;;;5.80;5.30;;;19.50;99.90;;;;;;4975037;28;20188;-68
2022/07/29 05:22:20;;;;;;;4.80;4.40;;;19.60;99.90;;;;;;4974620;28;20642;-67
2022/07/29 05:24:46;;;;;;;6.00;4.70;;;19.70;99.90;;;;;;4974318;28;20421;-65
2022/07/29 05:27:12;;;;;;;4.60;4.20;;;19.90;99.90;;;;;;4975009;28;20383;-66
2022/07/29 05:29:38;;;;;;;5.73;5.23;;;20.00;99.90;;;;;;4974446;28;20402;-66
2022/07/29 05:32:05;;;;;;;4.93;4.43;;;20.10;99.90;;;;;;4974802;28;20255;-66
2022/07/29 05:34:31;;;;;;;4.63;4.33;;;20.10;99.90;;;;;;4974305;28;20482;-65
2022/07/29 05:36:57;;;;;;;6.07;5.50;;;20.20;99.90;;;;;;4974765;28;20814;-66
2022/07/29 05:39:24;;;;;;;7.10;4.97;;;20.20;99.90;;;;;;4974287;28;20457;-65
2022/07/29 05:41:50;;;;;;;5.83;4.70;;;20.20;99.90;;;;;;4974014;28;20429;-65
2022/07/29 05:44:15;;;;;;;5.53;5.10;;;20.20;99.90;;;;;;4973553;28;20239;-65
2022/07/29 05:46:41;;;;;;;5.57;5.07;;;20.30;99.90;;;;;;4961445;28;20910;-65
2022/07/29 05:49:07;;;;;;;5.73;5.27;;;20.30;99.90;;;;;;4966863;28;20176;-65
2022/07/29 05:51:35;;;;;;;6.10;5.53;;;20.30;99.90;;;;;;4973905;28;20192;-65
2022/07/29 05:54:02;;;;;;;5.50;5.00;;;20.50;99.90;;;;;;4974269;28;20181;-65
2022/07/29 05:56:27;;;;;;;8.23;4.93;;;20.60;99.90;;;;;;4974133;28;20451;-65
2022/07/29 05:58:53;;;;;;;5.80;5.17;;;20.70;99.90;;;;;;4973896;28;20951;-65
2022/07/29 06:01:19;;;;;;;4.67;4.27;;;20.80;99.90;;;;;;4972606;28;20188;-65
2022/07/29 06:03:44;;;;;;;5.90;5.40;;;20.90;99.90;;;;;;4972340;28;20203;-65
2022/07/29 06:06:10;;;;;;;5.10;4.60;;;21.00;99.90;;;;;;4974232;28;20309;-65
2022/07/29 06:08:36;;;;;;;4.87;4.47;;;21.10;99.90;;;;;;4974423;28;20622;-65
2022/07/29 06:11:03;;;;;;;5.13;4.40;;;21.10;99.90;;;;;;4973745;28;20255;-65
2022/07/29 06:13:29;;;;;;;4.77;4.37;;;21.20;99.90;;;;;;4974086;28;20181;-65
2022/07/29 06:15:54;;;;;;;5.20;4.33;;;21.30;99.90;;;;;;4974153;28;20522;-65
2022/07/29 06:18:23;;;;;;;4.60;4.20;;;21.40;99.90;;;;;;4974145;28;20538;-65
2022/07/29 06:20:52;;;;;;;4.63;4.33;;;21.50;99.90;;;;;;4974575;28;20184;-64
2022/07/29 06:23:19;;;;;;;6.20;5.00;;;21.60;99.90;;;;;;4974571;28;20821;-65
2022/07/29 06:25:45;;;;;;;4.23;3.83;;;21.80;99.90;;;;;;4974684;28;20949;-64
2022/07/29 06:28:11;;;;;;;4.23;3.83;;;21.90;99.90;;;;;;4975571;28;20424;-65
2022/07/29 06:30:36;;;;;;;4.10;3.80;;;22.00;99.90;;;;;;4957596;28;20470;-65
2022/07/29 06:33:03;;;;;;;4.33;3.90;;;22.10;99.90;;;;;;4973985;28;20227;-65
2022/07/29 06:35:29;;;;;;;4.50;4.03;;;22.30;99.90;;;;;;4974495;28;20612;-66
2022/07/29 06:37:54;;;;;;;3.63;3.33;;;22.60;99.90;;;;;;4974032;28;20467;-64
2022/07/29 06:43:04;;;;;;;4.03;3.63;;;23.00;99.90;;;;;;4977475;28;20251;-66
2022/07/29 06:45:33;;;;;;;3.63;3.40;;;23.20;99.90;;;;;;4977675;28;20451;-65
2022/07/29 06:47:59;;;;;;;5.23;4.33;;;23.30;99.90;;;;;;4977603;28;20428;-65
2022/07/29 06:50:25;;;;;;;4.13;3.83;;;23.40;99.90;;;;;;4977953;28;20390;-65
2022/07/29 06:52:50;;;;;;;3.60;3.30;;;23.50;99.90;;;;;;4977138;28;20176;-65
2022/07/29 06:55:16;;;;;;;2.73;2.63;;;23.50;99.90;;;;;;4976952;28;20688;-67
2022/07/29 06:57:42;;;;;;;3.67;3.37;;;23.70;99.90;;;;;;4977578;28;20216;-67
2022/07/29 07:00:08;;;;;;;3.50;3.30;;;24.10;99.90;;;;;;4977348;28;20749;-67
2022/07/29 07:02:34;;;;;;;3.00;2.80;;;24.20;99.90;;;;;;4977137;28;20177;-67
2022/07/29 07:04:59;;;;;;;4.07;3.13;;;24.40;99.90;;;;;;4977247;28;20415;-67
2022/07/29 07:07:25;;;;;;;3.10;2.90;;;24.50;99.90;;;;;;4976997;28;20200;-66
2022/07/29 07:09:51;;;;;;;3.07;2.87;;;24.50;99.90;;;;;;4976845;28;20220;-67
2022/07/29 07:12:16;;;;;;;2.90;2.70;;;24.60;99.90;;;;;;4976953;28;20172;-68
2022/07/29 07:14:42;;;;;;;3.43;3.23;;;24.60;99.90;;;;;;4977044;28;20570;-69
2022/07/29 07:17:07;;;;;;;5.20;2.87;;;24.60;99.90;;;;;;4977180;28;20623;-68
2022/07/29 07:19:33;;;;;;;3.13;2.93;;;24.60;99.90;;;;;;4977044;28;20187;-70
2022/07/29 07:21:59;;;;;;;3.47;3.27;;;24.70;99.90;;;;;;4977098;28;20189;-68
2022/07/29 07:24:25;;;;;;;3.53;3.23;;;24.80;99.90;;;;;;4976063;28;20447;-68
2022/07/29 07:26:51;;;;;;;3.47;3.27;;;24.90;99.90;;;;;;4976906;28;20168;-69
2022/07/29 07:29:16;;;;;;;2.83;2.63;;;25.10;99.90;;;;;;4976878;28;20204;-69
2022/07/29 07:31:42;;;;;;;3.17;2.80;;;25.30;99.90;;;;;;4976953;28;20816;-65
2022/07/29 07:34:07;;;;;;;4.30;3.20;;;25.40;99.90;;;;;;4976583;28;20628;-66
2022/07/29 07:36:33;;;;;;;3.43;3.20;;;25.30;99.90;;;;;;4977004;28;20180;-66
2022/07/29 07:38:59;;;;;;;2.90;2.70;;;25.30;99.90;;;;;;4976002;28;20208;-66
2022/07/29 07:41:24;;;;;;;3.23;2.93;;;25.30;99.90;;;;;;4976515;28;20227;-66
2022/07/29 07:43:50;;;;;;;3.40;3.20;;;25.40;99.90;;;;;;4976349;28;20508;-66
2022/07/29 07:46:16;;;;;;;2.73;2.60;;;25.50;99.90;;;;;;4976426;28;20648;-66
2022/07/29 07:48:41;;;;;;;3.27;3.07;;;25.60;99.90;;;;;;4976430;28;20185;-66
2022/07/29 07:51:07;;;;;;;3.30;2.90;;;25.90;99.90;;;;;;4976224;28;20275;-66
2022/07/29 07:53:33;;;;;;;2.60;2.50;;;26.20;99.90;;;;;;4975673;28;20183;-65
2022/07/29 07:55:59;;;;;;;2.90;2.70;;;26.60;99.90;;;;;;4976340;28;20208;-65
2022/07/29 07:58:25;;;;;;;3.03;2.83;;;27.10;99.40;;;;;;4976368;28;20446;-65
2022/07/29 08:00:51;;;;;;;3.70;3.40;;;27.90;98.20;;;;;;4975870;28;20414;-66
2022/07/29 08:03:16;;;;;;;3.13;2.93;;;28.80;96.10;;;;;;4974817;28;20176;-65
2022/07/29 08:05:42;;;;;;;3.20;3.00;;;29.50;95.00;;;;;;4975005;28;20196;-65
2022/07/29 08:08:07;;;;;;;2.97;2.77;;;30.30;93.30;;;;;;4975087;28;20184;-65
2022/07/29 08:13:19;;;;;;;2.43;2.30;;;31.50;90.30;;;;;;4975851;28;20191;-65
2022/07/29 08:15:45;;;;;;;3.30;3.00;;;32.10;90.00;;;;;;4975989;28;20442;-66
2022/07/29 08:18:12;;;;;;;2.70;2.50;;;32.60;86.80;;;;;;4976107;28;20490;-65
2022/07/29 08:20:38;;;;;;;3.77;3.50;;;33.10;83.30;;;;;;4975828;28;20447;-65
2022/07/29 08:23:10;;;;;;;3.20;3.00;;;33.10;82.70;;;;;;4975429;28;20426;-65
2022/07/29 08:25:38;;;;;;;3.77;3.00;;;33.60;81.30;;;;;;4975733;28;20471;-65
2022/07/29 08:28:04;;;;;;;2.97;2.77;;;34.20;80.00;;;;;;4975941;28;20426;-65
2022/07/29 08:30:30;;;;;;;3.90;3.60;;;35.00;77.10;;;;;;4975926;28;20503;-66
2022/07/29 08:32:56;;;;;;;3.13;2.93;;;35.70;73.40;;;;;;4975365;28;20172;-66
2022/07/29 08:35:23;;;;;;;3.70;3.00;;;36.10;70.80;;;;;;4975275;28;20218;-66
2022/07/29 08:37:48;;;;;;;5.53;5.03;;;36.20;69.80;;;;;;4957780;28;20492;-66
2022/07/29 08:40:14;;;;;;;3.53;3.33;;;36.20;69.60;;;;;;4975682;28;20444;-65
2022/07/29 08:42:40;;;;;;;4.50;4.20;;;36.20;68.30;;;;;;4975281;28;20693;-66
2022/07/29 08:45:06;;;;;;;4.20;2.80;;;36.50;69.80;;;;;;4975355;28;20196;-65
2022/07/29 08:47:33;;;;;;;3.53;3.33;;;36.80;68.70;;;;;;4975552;28;20180;-66
2022/07/29 08:49:59;;;;;;;4.40;4.00;;;36.90;65.60;;;;;;4975111;28;20507;-66
2022/07/29 08:52:26;;;;;;;3.70;3.50;;;36.60;65.50;;;;;;4974923;28;20415;-66
2022/07/29 08:54:53;;;;;;;3.80;3.50;;;36.50;65.50;;;;;;4975061;28;20443;-66
2022/07/29 08:57:21;;;;;;;4.47;3.20;;;36.40;65.40;;;;;;4975372;28;20408;-66
2022/07/29 08:59:47;;;;;;;3.57;3.37;;;35.90;65.70;;;;;;4975182;28;20778;-66
2022/07/29 09:02:19;;;;;;;3.90;3.57;;;36.00;65.60;;;;;;4974841;28;20400;-66
2022/07/29 09:04:45;;;;;;;3.90;3.60;;;36.00;65.70;;;;;;4974303;28;20925;-66
2022/07/29 09:07:16;;;;;;;4.40;4.10;;;35.70;64.90;;;;;;4974835;28;20434;-68
2022/07/29 09:09:42;;;;;;;3.63;3.43;;;35.90;65.20;;;;;;4975021;28;20211;-66
2022/07/29 09:12:11;;;;;;;4.13;3.93;;;36.40;63.70;;;;;;4974741;28;20497;-67
2022/07/29 09:14:40;;;;;;;4.30;4.00;;;36.50;62.00;;;;;;4974838;28;20793;-67
2022/07/29 09:17:06;;;;;;;4.30;4.00;;;36.60;61.50;;;;;;4974953;28;20458;-67
2022/07/29 09:19:36;;;;;;;3.93;3.47;;;37.10;61.40;;;;;;4974460;28;20431;-67
2022/07/29 09:22:06;;;;;;;4.97;4.47;;;37.60;59.50;;;;;;4975013;28;20399;-67
2022/07/29 09:24:41;;;;;;;4.07;3.87;;;37.90;58.60;;;;;;4974589;28;20431;-66
2022/07/29 09:27:28;;;;;;;4.03;3.73;;;38.30;58.40;;;;;;4974850;28;20454;-66
2022/07/29 09:30:13;;;;;;;4.10;3.90;;;38.10;58.50;;;;;;4974897;28;20429;-66
2022/07/29 09:33:00;;;;;;;4.33;4.03;;;38.30;58.10;;;;;;4974139;28;20897;-66
2022/07/29 09:35:27;;;;;;;4.23;3.93;;;38.30;57.10;;;;;;4974756;28;20431;-66
2022/07/29 09:37:53;;;;;;;4.20;3.90;;;;;;;;;;4974444;28;20447;-67
2022/07/29 09:40:22;;;;;;;3.80;3.60;;;;;;;;;;4974516;28;20404;-66
2022/07/29 09:42:49;;;;;;;4.13;3.87;;;;;;;;;;4973879;28;20404;-66
2022/07/29 09:45:37;;;;;;;4.17;3.77;;;37.90;57.40;;;;;;4974107;28;20419;-66
2022/07/29 09:48:25;;;;;;;4.87;4.57;;;37.80;56.30;;;;;;4974283;28;20459;-66
2022/07/29 09:50:52;;;;;;;4.40;4.10;;;37.50;56.20;;;;;;4966687;28;20459;-66
2022/07/29 09:53:33;;;;;;;3.93;3.73;;;37.10;56.60;;;;;;4974370;28;20774;-66
2022/07/29 09:55:59;;;;;;;4.50;4.20;;;;;;;;;;4974404;28;20439;-66
2022/07/29 09:58:25;;;;;;;4.50;4.20;;;37.10;56.00;;;;;;4974373;28;20506;-66
2022/07/29 10:00:53;;;;;;;5.13;4.83;;;37.70;56.00;;;;;;4968820;28;20555;-65
2022/07/29 10:03:19;;;;;;;6.87;4.40;;;38.00;53.80;;;;;;4951636;28;20186;-70
2022/07/29 10:05:45;;;;;;;4.80;4.50;;;38.20;53.10;;;;;;4974191;28;20511;-69
2022/07/29 10:08:12;;;;;;;4.50;4.20;;;38.50;52.10;;;;;;4974548;28;20204;-68
2022/07/29 10:10:42;;;;;;;4.30;4.10;;;38.50;52.20;;;;;;4974488;28;20404;-68
2022/07/29 10:13:13;;;;;;;4.63;4.37;;;38.20;52.90;;;;;;4974075;28;20876;-68
2022/07/29 10:15:45;;;;;;;4.90;4.70;;;37.70;52.30;;;;;;4976397;28;20451;-70
2022/07/29 10:18:12;;;;;;;5.03;4.70;;;36.80;53.10;;;;;;4978272;28;20404;-68
2022/07/29 10:20:39;;;;;;;4.47;4.17;;;36.40;53.90;;;;;;4978344;28;20767;-70
2022/07/29 10:23:05;;;;;;;4.00;3.80;;;36.20;54.80;;;;;;4977620;28;20411;-69
2022/07/29 10:25:31;;;;;;;4.80;4.40;;;36.10;54.40;;;;;;4977410;28;20834;-69
2022/07/29 10:27:58;;;;;;;5.00;4.63;;;35.90;54.60;;;;;;4944623;28;20493;-66
2022/07/29 10:30:25;;;;;;;5.17;4.87;;;35.60;56.30;;;;;;4977592;28;20419;-67
2022/07/29 10:33:14;;;;;;;4.50;4.20;;;35.30;55.40;;;;;;4977412;28;20492;-66
2022/07/29 10:36:08;;;;;;;4.43;4.23;;;34.80;56.30;;;;;;4977850;28;20422;-68
2022/07/29 10:38:40;;;;;;;5.07;4.77;;;34.20;57.20;;;;;;4977680;28;20394;-67
2022/07/29 10:41:34;;;;;;;5.20;4.80;;;33.80;57.90;;;;;;4977631;28;20377;-66
2022/07/29 10:44:03;;;;;;;5.00;4.70;;;33.40;58.70;;;;;;4977540;28;20461;-68
2022/07/29 10:46:35;;;;;;;5.10;4.60;;;33.00;58.90;;;;;;4959853;28;20800;-65
2022/07/29 10:49:10;;;;;;;5.43;5.03;;;32.50;59.30;;;;;;4977606;28;20437;-71
2022/07/29 10:51:55;;;;;;;4.67;4.37;;;31.80;60.70;;;;;;4977557;28;20374;-69
2022/07/29 10:54:39;;;;;;;5.27;4.87;;;31.40;62.00;;;;;;4977061;28;20507;-67
2022/07/29 10:57:12;;;;;;;4.80;4.50;;;30.90;63.50;;;;;;4977289;28;20430;-65
2022/07/29 10:59:38;;;;;;;4.90;4.60;;;30.20;64.40;;;;;;4976857;28;20398;-68
2022/07/29 11:02:36;;;;;;;5.40;5.00;;;29.70;66.40;;;;;;4977493;28;20745;-68
2022/07/29 11:05:08;;;;;;;6.60;4.30;;;29.20;68.70;;;;;;4977171;28;20410;-68
2022/07/29 11:07:36;;;;;;;4.90;4.53;;;28.80;70.70;;;;;;4976931;28;20550;-68
2022/07/29 11:10:15;;;;;;;4.40;4.10;;;28.50;70.80;;;;;;4977588;28;20964;-68
2022/07/29 11:12:43;;;;;;;5.60;5.10;;;28.30;72.30;;;;;;4976429;28;20821;-65
2022/07/29 11:15:18;;;;;;;5.90;4.60;;;28.00;75.80;;;;;;4977054;28;20507;-67
2022/07/29 11:17:53;;;;;;;4.67;4.13;;;27.70;77.20;;;;;;4977100;28;20381;-67
2022/07/29 11:20:42;;;;;;;6.50;5.20;;;27.40;79.20;;;;;;4976980;28;20390;-66
2022/07/29 11:23:43;;;;;;;5.43;4.80;;;27.10;82.40;;;;;;4976500;28;20412;-63
2022/07/29 11:26:21;;;;;;;6.50;5.80;;;26.80;84.80;;;;;;4941099;28;20440;-67
2022/07/29 11:28:53;;;;;;;5.43;5.03;;;26.50;87.10;;;;;;4965160;28;20457;-65
2022/07/29 11:31:41;;;;;;;5.70;5.30;;;26.20;89.90;;;;;;4957490;29;20907;-66
2022/07/29 11:34:22;;;;;;;5.47;5.00;;;25.90;91.90;;;;;;4956117;28;20455;-66
2022/07/29 11:37:09;;;;;;;6.67;6.07;;;25.50;94.20;;;;;;4957417;29;20401;-65
2022/07/29 11:39:43;;;;;;;10.30;6.97;;;25.10;96.80;;;;;;4957466;29;20877;-66
2022/07/29 11:42:31;;;;;;;6.33;5.70;;;24.70;99.90;;;;;;4967627;28;20531;-62
2022/07/29 11:45:15;;;;;;;6.77;6.07;;;24.30;99.90;;;;;;4968447;28;20448;-63
2022/07/29 11:47:47;;;;;;;7.17;6.50;;;24.00;99.90;;;;;;4976589;28;20844;-66
2022/07/29 11:50:16;;;;;;;6.00;5.40;;;23.70;99.90;;;;;;4976469;28;20408;-67
2022/07/29 11:52:46;;;;;;;8.50;5.57;;;23.50;99.90;;;;;;4976037;28;20404;-67
2022/07/29 11:55:17;;;;;;;6.03;5.40;;;23.30;99.90;;;;;;4975583;28;20955;-67
2022/07/29 11:57:48;;;;;;;6.13;5.20;;;23.20;99.90;;;;;;4975071;28;20728;-67
2022/07/29 12:00:23;;;;;;;6.00;5.40;;;23.00;99.90;;;;;;4974724;28;20439;-67
2022/07/29 12:02:49;;;;;;;4.90;4.40;;;22.90;99.90;;;;;;4974544;28;20905;-68
2022/07/29 12:05:15;;;;;;;7.20;5.27;;;22.80;99.90;;;;;;4975258;28;20441;-66
2022/07/29 12:07:41;;;;;;;7.83;5.10;;;22.80;99.90;;;;;;4975307;28;20204;-67
2022/07/29 12:10:07;;;;;;;5.70;5.07;;;22.90;99.90;;;;;;4974379;28;20463;-67
2022/07/29 12:12:34;;;;;;;5.50;3.77;;;22.90;99.90;;;;;;4975802;28;20179;-68
2022/07/29 12:15:13;;;;;;;3.90;3.60;;;23.00;99.90;;;;;;4974031;28;20505;-69
2022/07/29 12:17:39;;;;;;;3.80;3.50;;;23.00;99.90;;;;;;4973904;28;20406;-68
2022/07/29 12:20:05;;;;;;;3.93;3.63;;;22.80;99.90;;;;;;4973917;28;20785;-68
2022/07/29 12:22:40;;;;;;;2.87;2.67;;;22.70;99.90;;;;;;4973580;28;20228;-67
2022/07/29 12:25:14;;;;;;;2.73;2.53;;;22.50;99.90;;;;;;4973505;28;20443;-69
2022/07/29 12:27:40;;;;;;;2.67;2.30;;;22.50;99.90;;;;;;4956174;28;20463;-68
2022/07/29 12:30:11;;;;;;;2.37;2.20;;;22.50;99.90;;;;;;4973740;28;20418;-67
2022/07/29 12:32:42;;;;;;;2.40;2.30;;;22.50;99.90;;;;;;4973296;28;20619;-68
2022/07/29 12:35:14;;;;;;;2.37;2.17;;;22.60;99.90;;;;;;4973497;28;20431;-68
2022/07/29 12:37:42;;;;;;;2.90;2.70;;;22.70;99.90;;;;;;4973315;28;20417;-67
2022/07/29 12:40:11;;;;;;;2.47;2.37;;;22.90;99.90;;;;;;4973554;28;20458;-67
2022/07/29 12:42:37;;;;;;;3.30;2.63;;;23.10;99.90;;;;;;4974937;28;20526;-67
2022/07/29 12:45:03;;;;;;;2.73;2.53;;;23.30;99.90;;;;;;4975505;28;20522;-66
2022/07/29 12:47:29;;;;;;;2.40;2.20;;;23.50;99.90;;;;;;4957949;28;20419;-67
2022/07/29 12:50:10;;;;;;;2.90;2.80;;;23.80;99.90;;;;;;4975545;28;20375;-66
2022/07/29 12:52:36;;;;;;;2.13;2.03;;;24.00;99.90;;;;;;4975066;28;20172;-66
2022/07/29 12:55:03;;;;;;;1.93;1.83;;;24.20;99.90;;;;;;4974897;28;20448;-66
2022/07/29 12:57:29;;;;;;;2.30;2.10;;;24.20;99.50;;;;;;4975253;28;20452;-66
2022/07/29 13:00:04;;;;;;;1.53;1.43;;;24.30;98.50;;;;;;4975375;28;20400;-66
2022/07/29 13:02:30;;;;;;;2.13;2.03;;;24.30;96.80;;;;;;4975012;28;20247;-66
2022/07/29 13:04:58;;;;;;;1.90;1.80;;;24.30;97.00;;;;;;4975033;28;20426;-66
2022/07/29 13:07:26;;;;;;;2.57;2.37;;;24.20;97.80;;;;;;4974922;28;20188;-66
2022/07/29 13:09:53;;;;;;;2.50;2.37;;;24.20;97.80;;;;;;4974993;28;20420;-66
2022/07/29 13:12:20;;;;;;;2.50;2.30;;;24.30;97.60;;;;;;4974775;28;20403;-66
2022/07/29 13:14:47;;;;;;;2.47;2.27;;;24.20;97.60;;;;;;4974333;28;20410;-66
2022/07/29 13:17:19;;;;;;;2.93;2.73;;;24.20;98.00;;;;;;4974753;28;20400;-67
2022/07/29 13:19:50;;;;;;;2.67;2.47;;;24.00;98.00;;;;;;4975282;28;20490;-66
2022/07/29 13:22:21;;;;;;;2.80;2.60;;;23.90;98.20;;;;;;4974824;28;20809;-67
2022/07/29 13:25:06;;;;;;;2.87;2.67;;;23.70;98.60;;;;;;4974508;28;20440;-67
2022/07/29 13:27:36;;;;;;;2.77;2.57;;;23.60;99.60;;;;;;4975029;28;20382;-67
2022/07/29 13:30:04;;;;;;;2.93;2.73;;;23.50;98.80;;;;;;4975222;28;20736;-66
2022/07/29 13:32:31;;;;;;;3.17;2.97;;;23.50;98.70;;;;;;4974336;28;20446;-66
2022/07/29 13:34:59;;;;;;;2.37;2.17;;;23.50;99.10;;;;;;4974587;28;20767;-66
2022/07/29 13:37:26;;;;;;;2.77;2.57;;;23.40;99.70;;;;;;4974528;28;20432;-67
2022/07/29 13:39:52;;;;;;;2.87;2.67;;;23.30;99.90;;;;;;4974633;28;20430;-66
2022/07/29 13:42:18;;;;;;;2.93;2.73;;;23.20;99.90;;;;;;4974505;28;20922;-66
2022/07/29 13:44:44;;;;;;;3.40;3.10;;;23.00;99.90;;;;;;4974662;28;20524;-66
2022/07/29 13:47:10;;;;;;;3.17;2.97;;;22.80;99.90;;;;;;4974641;28;20171;-66
2022/07/29 13:49:36;;;;;;;5.10;3.50;;;22.70;99.90;;;;;;4974404;28;20204;-66
2022/07/29 13:52:03;;;;;;;3.80;3.47;;;22.50;99.90;;;;;;4974201;28;20775;-67
2022/07/29 13:54:28;;;;;;;4.17;3.27;;;22.40;99.90;;;;;;4973738;28;20188;-67
2022/07/29 13:56:54;;;;;;;4.87;3.63;;;22.10;99.90;;;;;;4974530;28;20408;-67
2022/07/29 13:59:19;;;;;;;3.77;3.50;;;22.00;99.90;;;;;;4973978;28;20181;-67
2022/07/29 14:01:45;;;;;;;5.63;4.13;;;22.00;99.90;;;;;;4974533;28;20192;-67
2022/07/29 14:04:11;;;;;;;3.80;3.50;;;22.00;99.90;;;;;;4973816;28;20362;-67
2022/07/29 14:06:36;;;;;;;3.97;3.57;;;22.00;99.90;;;;;;4974007;28;20204;-67
2022/07/29 14:09:06;;;;;;;4.57;4.17;;;22.10;99.90;;;;;;4973916;28;20214;-67
2022/07/29 14:11:32;;;;;;;4.43;4.07;;;22.10;99.90;;;;;;4974255;28;20187;-67
2022/07/29 14:13:58;;;;;;;5.33;4.93;;;22.20;99.90;;;;;;4973705;28;20437;-67
2022/07/29 14:16:23;;;;;;;5.70;5.00;;;22.40;99.90;;;;;;4956427;28;20460;-66
2022/07/29 14:18:49;;;;;;;4.73;4.33;;;22.60;99.90;;;;;;4974155;28;20298;-66
2022/07/29 14:21:15;;;;;;;5.13;4.70;;;22.80;99.90;;;;;;4957067;28;20198;-66
2022/07/29 14:23:41;;;;;;;4.70;4.37;;;23.10;99.90;;;;;;4973455;28;20409;-67
2022/07/29 14:26:06;;;;;;;4.20;3.90;;;23.20;99.90;;;;;;4973922;28;20216;-66
2022/07/29 14:28:32;;;;;;;4.83;4.50;;;23.40;99.90;;;;;;4974264;28;20184;-67
2022/07/29 14:30:58;;;;;;;4.60;4.20;;;23.60;99.90;;;;;;4973856;28;20190;-67
2022/07/29 14:33:23;;;;;;;5.30;4.87;;;23.80;99.90;;;;;;4973861;28;20266;-67
2022/07/29 14:35:49;;;;;;;5.27;4.87;;;24.00;99.90;;;;;;4974132;28;20674;-67
2022/07/29 14:38:14;;;;;;;5.93;5.43;;;24.30;99.90;;;;;;4974040;28;20207;-67
2022/07/29 14:40:40;;;;;;;4.57;4.17;;;24.50;99.90;;;;;;4974122;28;20169;-66
2022/07/29 14:43:06;;;;;;;6.43;4.70;;;24.60;99.90;;;;;;4973784;28;20199;-65
2022/07/29 14:45:31;;;;;;;5.50;5.10;;;24.80;99.90;;;;;;4973351;28;20196;-67
2022/07/29 14:47:57;;;;;;;5.10;4.70;;;24.90;99.90;;;;;;4973974;28;20575;-66
2022/07/29 14:50:23;;;;;;;5.30;4.80;;;24.90;99.90;;;;;;4973634;28;20690;-66
2022/07/29 14:52:48;;;;;;;3.93;3.63;;;24.80;99.90;;;;;;4973622;28;20263;-66
2022/07/29 14:55:14;;;;;;;5.27;4.87;;;24.70;99.90;;;;;;4973922;28;20650;-66
2022/07/29 14:57:40;;;;;;;5.80;4.63;;;24.70;99.90;;;;;;4973942;28;20200;-66
2022/07/29 15:00:07;;;;;;;5.37;4.97;;;24.60;99.90;;;;;;4973796;28;20436;-66
2022/07/29 15:02:33;;;;;;;5.83;4.70;;;24.60;99.90;;;;;;4975848;28;20184;-66
2022/07/29 15:04:59;;;;;;;5.47;4.53;;;24.60;99.90;;;;;;4977323;28;20435;-65
2022/07/29 15:07:25;;;;;;;4.93;4.60;;;24.60;99.90;;;;;;4977123;28;20478;-67
2022/07/29 15:09:50;;;;;;;5.13;4.53;;;24.60;99.90;;;;;;4977152;28;20176;-66
2022/07/29 15:12:17;;;;;;;5.10;4.80;;;24.60;99.90;;;;;;4976887;28;20623;-66
2022/07/29 15:14:43;;;;;;;7.30;4.73;;;24.60;99.90;;;;;;4959801;28;20253;-66
2022/07/29 15:17:08;;;;;;;5.00;4.60;;;24.60;99.90;;;;;;4977453;28;20411;-66
2022/07/29 15:19:34;;;;;;;5.63;4.90;;;24.60;99.90;;;;;;4977160;28;20211;-66
2022/07/29 15:22:00;;;;;;;4.30;4.00;;;24.50;99.90;;;;;;4977021;28;20526;-65
2022/07/29 15:24:25;;;;;;;5.00;4.17;;;24.50;99.90;;;;;;4976362;28;20196;-66
2022/07/29 15:26:51;;;;;;;3.80;3.50;;;24.40;99.90;;;;;;4977176;28;20190;-66
2022/07/29 15:29:16;;;;;;;4.10;3.80;;;24.30;99.90;;;;;;4976939;28;20187;-66
2022/07/29 15:31:43;;;;;;;5.07;4.63;;;24.30;99.90;;;;;;4976648;28;20226;-66
2022/07/29 15:34:08;;;;;;;5.30;4.43;;;24.20;99.90;;;;;;4976106;28;20562;-66
2022/07/29 15:36:34;;;;;;;3.93;3.73;;;24.30;99.90;;;;;;4976831;28;20401;-66
2022/07/29 15:39:00;;;;;;;4.80;4.40;;;24.20;99.90;;;;;;4976420;28;20750;-66
2022/07/29 15:41:25;;;;;;;4.20;3.90;;;24.30;99.90;;;;;;4976678;28;20461;-66
2022/07/29 15:43:51;;;;;;;4.23;3.93;;;24.30;99.90;;;;;;4976446;28;20176;-66
2022/07/29 15:49:04;;;;;;;5.40;5.00;;;24.30;99.90;;;;;;4976685;28;20191;-66
2022/07/29 15:51:30;;;;;;;4.27;3.97;;;24.20;99.90;;;;;;4976446;28;20445;-66
2022/07/29 15:53:56;;;;;;;4.10;3.80;;;24.20;99.90;;;;;;4958479;28;20461;-66
2022/07/29 15:56:22;;;;;;;4.40;4.10;;;24.20;99.90;;;;;;4976656;28;20402;-66
2022/07/29 15:58:48;;;;;;;4.20;3.90;;;24.20;99.90;;;;;;4959153;28;20255;-66
2022/07/29 16:01:14;;;;;;;5.13;4.63;;;24.20;99.90;;;;;;4976430;28;20901;-66
2022/07/29 16:03:39;;;;;;;4.63;4.33;;;24.20;99.90;;;;;;4975983;28;20626;-66
2022/07/29 16:06:05;;;;;;;4.30;3.90;;;24.20;99.90;;;;;;4975957;28;20611;-66
2022/07/29 16:08:31;;;;;;;4.77;4.37;;;24.30;99.90;;;;;;4958701;28;20650;-66
2022/07/29 16:10:56;;;;;;;4.43;4.03;;;24.30;99.90;;;;;;4958904;28;20247;-66
2022/07/29 16:13:22;;;;;;;4.40;4.10;;;24.30;99.90;;;;;;4975736;28;20230;-66
2022/07/29 16:15:48;;;;;;;5.67;4.33;;;24.30;99.90;;;;;;4976277;28;20196;-66
2022/07/29 16:18:13;;;;;;;5.03;4.30;;;24.20;99.90;;;;;;4976009;28;20200;-66
2022/07/29 16:20:40;;;;;;;4.80;4.40;;;24.30;99.90;;;;;;4958523;28;20631;-66
2022/07/29 16:23:08;;;;;;;5.10;4.33;;;24.30;99.90;;;;;;4974614;28;20567;-66
2022/07/29 16:25:34;;;;;;;5.40;4.90;;;24.20;99.90;;;;;;4976131;28;20468;-66
2022/07/29 16:28:00;;;;;;;5.80;5.30;;;24.20;99.90;;;;;;4976362;28;20415;-65
2022/07/29 16:30:26;;;;;;;3.73;3.50;;;24.20;99.90;;;;;;4974170;28;20432;-67
2022/07/29 16:32:51;;;;;;;4.90;4.50;;;24.30;99.90;;;;;;4975301;28;20185;-65
2022/07/29 16:35:17;;;;;;;4.97;4.57;;;24.40;99.90;;;;;;4975296;28;20210;-66
2022/07/29 16:37:42;;;;;;;3.67;3.47;;;24.40;99.90;;;;;;4975807;28;20204;-68
2022/07/29 16:40:08;;;;;;;4.10;3.80;;;24.50;99.90;;;;;;4958135;28;20179;-65
2022/07/29 16:42:34;;;;;;;4.40;4.10;;;24.50;99.90;;;;;;4974508;28;20223;-66
2022/07/29 16:45:01;;;;;;;5.10;4.60;;;24.60;99.90;;;;;;4975518;28;20457;-65
2022/07/29 16:47:26;;;;;;;3.93;3.67;;;24.60;99.90;;;;;;4975512;28;20200;-65
2022/07/29 16:49:52;;;;;;;4.20;3.90;;;24.70;99.90;;;;;;4975457;28;20766;-66
2022/07/29 16:52:18;;;;;;;4.30;3.97;;;24.70;99.90;;;;;;4975336;28;20271;-66
2022/07/29 16:54:43;;;;;;;4.40;4.10;;;24.70;99.90;;;;;;4975002;28;20256;-67
2022/07/29 16:57:10;;;;;;;6.53;4.70;;;24.70;99.90;;;;;;4975159;28;20419;-66
2022/07/29 16:59:36;;;;;;;4.80;4.40;;;24.70;99.90;;;;;;4975270;28;20283;-66
2022/07/29 17:02:03;;;;;;;6.90;6.30;;;24.60;99.90;;;;;;4975680;28;20404;-66
2022/07/29 17:04:29;;;;;;;5.77;5.27;;;24.60;99.90;;;;;;4974768;28;20451;-66